sensor_id;sensor_type;location;lat;lon;timestamp;P1;durP1;ratioP1;P2;durP2;ratioP2
38240;SDS011;24037;49.536;8.500;2022-11-20T00:01:07;55.08;;;24.35;;
38240;SDS011;24037;49.536;8.500;2022-11-20T00:03:40;64.82;;;26.10;;
38240;SDS011;24037;49.536;8.500;2022-11-20T00:06:08;62.92;;;25.45;;
38240;SDS011;24037;49.536;8.500;2022-11-20T00:08:36;56.72;;;24.80;;
38240;SDS011;24037;49.536;8.500;2022-11-20T00:11:04;67.68;;;25.88;;
38240;SDS011;24037;49.536;8.500;2022-11-20T00:13:34;55.15;;;24.33;;
38240;SDS011;24037;49.536;8.500;2022-11-20T00:16:01;53.15;;;24.23;;
38240;SDS011;24037;49.536;8.500;2022-11-20T00:18:30;56.50;;;23.55;;
38240;SDS011;24037;49.536;8.500;2022-11-20T00:21:05;61.17;;;25.73;;
38240;SDS011;24037;49.536;8.500;2022-11-20T00:23:35;57.95;;;25.00;;
38240;SDS011;24037;49.536;8.500;2022-11-20T00:26:05;56.30;;;24.70;;
38240;SDS011;24037;49.536;8.500;2022-11-20T00:28:33;62.85;;;26.17;;
38240;SDS011;24037;49.536;8.500;2022-11-20T00:31:00;75.13;;;29.48;;
38240;SDS011;24037;49.536;8.500;2022-11-20T00:33:30;75.90;;;31.38;;
38240;SDS011;24037;49.536;8.500;2022-11-20T00:36:06;58.13;;;26.08;;
38240;SDS011;24037;49.536;8.500;2022-11-20T00:38:34;57.97;;;24.52;;
38240;SDS011;24037;49.536;8.500;2022-11-20T00:41:02;58.53;;;25.95;;
38240;SDS011;24037;49.536;8.500;2022-11-20T00:43:30;54.50;;;23.23;;
38240;SDS011;24037;49.536;8.500;2022-11-20T00:45:59;53.33;;;24.05;;
38240;SDS011;24037;49.536;8.500;2022-11-20T00:48:35;48.95;;;22.45;;
38240;SDS011;24037;49.536;8.500;2022-11-20T00:51:02;56.50;;;24.60;;
38240;SDS011;24037;49.536;8.500;2022-11-20T00:53:28;59.08;;;24.05;;
38240;SDS011;24037;49.536;8.500;2022-11-20T00:55:55;59.53;;;24.48;;
38240;SDS011;24037;49.536;8.500;2022-11-20T00:58:23;67.05;;;25.73;;
38240;SDS011;24037;49.536;8.500;2022-11-20T01:00:50;62.70;;;24.83;;
38240;SDS011;24037;49.536;8.500;2022-11-20T01:03:16;58.20;;;24.70;;
38240;SDS011;24037;49.536;8.500;2022-11-20T01:05:43;52.47;;;24.08;;
38240;SDS011;24037;49.536;8.500;2022-11-20T01:08:09;58.22;;;23.85;;
38240;SDS011;24037;49.536;8.500;2022-11-20T01:10:36;52.65;;;23.35;;
38240;SDS011;24037;49.536;8.500;2022-11-20T01:13:02;54.45;;;22.92;;
38240;SDS011;24037;49.536;8.500;2022-11-20T01:15:47;56.80;;;24.90;;
38240;SDS011;24037;49.536;8.500;2022-11-20T01:18:13;52.15;;;23.33;;
38240;SDS011;24037;49.536;8.500;2022-11-20T01:20:39;53.38;;;24.13;;
38240;SDS011;24037;49.536;8.500;2022-11-20T01:23:05;54.13;;;22.92;;
38240;SDS011;24037;49.536;8.500;2022-11-20T01:25:31;59.22;;;23.08;;
38240;SDS011;24037;49.536;8.500;2022-11-20T01:28:00;53.17;;;22.88;;
38240;SDS011;24037;49.536;8.500;2022-11-20T01:30:26;63.88;;;26.65;;
38240;SDS011;24037;49.536;8.500;2022-11-20T01:32:52;55.88;;;23.73;;
38240;SDS011;24037;49.536;8.500;2022-11-20T01:35:21;55.30;;;26.42;;
38240;SDS011;24037;49.536;8.500;2022-11-20T01:37:47;55.35;;;23.77;;
38240;SDS011;24037;49.536;8.500;2022-11-20T01:40:13;58.58;;;24.15;;
38240;SDS011;24037;49.536;8.500;2022-11-20T01:42:43;57.70;;;24.30;;
38240;SDS011;24037;49.536;8.500;2022-11-20T01:48:21;59.03;;;22.92;;
38240;SDS011;24037;49.536;8.500;2022-11-20T01:50:51;56.33;;;23.38;;
38240;SDS011;24037;49.536;8.500;2022-11-20T01:53:20;64.90;;;26.30;;
38240;SDS011;24037;49.536;8.500;2022-11-20T01:55:51;52.08;;;23.48;;
38240;SDS011;24037;49.536;8.500;2022-11-20T01:58:21;61.67;;;24.85;;
38240;SDS011;24037;49.536;8.500;2022-11-20T02:00:51;57.05;;;23.80;;
38240;SDS011;24037;49.536;8.500;2022-11-20T02:03:18;62.22;;;24.35;;
38240;SDS011;24037;49.536;8.500;2022-11-20T02:08:24;61.20;;;24.67;;
38240;SDS011;24037;49.536;8.500;2022-11-20T02:10:50;58.85;;;22.50;;
38240;SDS011;24037;49.536;8.500;2022-11-20T02:13:16;59.45;;;23.05;;
38240;SDS011;24037;49.536;8.500;2022-11-20T02:16:01;70.85;;;26.85;;
38240;SDS011;24037;49.536;8.500;2022-11-20T02:18:28;91.47;;;34.58;;
38240;SDS011;24037;49.536;8.500;2022-11-20T02:20:58;80.00;;;30.95;;
38240;SDS011;24037;49.536;8.500;2022-11-20T02:23:38;71.90;;;29.10;;
38240;SDS011;24037;49.536;8.500;2022-11-20T02:26:09;61.38;;;24.15;;
38240;SDS011;24037;49.536;8.500;2022-11-20T02:28:38;53.13;;;22.38;;
38240;SDS011;24037;49.536;8.500;2022-11-20T02:31:05;52.03;;;21.75;;
38240;SDS011;24037;49.536;8.500;2022-11-20T02:33:31;52.38;;;22.08;;
38240;SDS011;24037;49.536;8.500;2022-11-20T02:35:57;55.55;;;20.90;;
38240;SDS011;24037;49.536;8.500;2022-11-20T02:38:23;57.90;;;21.83;;
38240;SDS011;24037;49.536;8.500;2022-11-20T02:40:49;49.35;;;19.75;;
38240;SDS011;24037;49.536;8.500;2022-11-20T02:43:16;53.25;;;22.13;;
38240;SDS011;24037;49.536;8.500;2022-11-20T02:45:42;50.28;;;20.30;;
38240;SDS011;24037;49.536;8.500;2022-11-20T02:48:08;55.25;;;19.70;;
38240;SDS011;24037;49.536;8.500;2022-11-20T02:50:36;47.92;;;21.92;;
38240;SDS011;24037;49.536;8.500;2022-11-20T02:53:04;48.25;;;19.75;;
38240;SDS011;24037;49.536;8.500;2022-11-20T02:55:30;47.42;;;21.02;;
38240;SDS011;24037;49.536;8.500;2022-11-20T02:57:56;51.35;;;21.23;;
38240;SDS011;24037;49.536;8.500;2022-11-20T03:00:22;40.95;;;18.38;;
38240;SDS011;24037;49.536;8.500;2022-11-20T03:02:48;53.40;;;20.60;;
38240;SDS011;24037;49.536;8.500;2022-11-20T03:05:14;55.25;;;20.88;;
38240;SDS011;24037;49.536;8.500;2022-11-20T03:07:41;55.40;;;22.58;;
38240;SDS011;24037;49.536;8.500;2022-11-20T03:10:08;57.10;;;21.50;;
38240;SDS011;24037;49.536;8.500;2022-11-20T03:12:34;55.08;;;21.02;;
38240;SDS011;24037;49.536;8.500;2022-11-20T03:15:00;55.13;;;21.08;;
38240;SDS011;24037;49.536;8.500;2022-11-20T03:17:27;49.42;;;21.05;;
38240;SDS011;24037;49.536;8.500;2022-11-20T03:19:54;49.90;;;19.73;;
38240;SDS011;24037;49.536;8.500;2022-11-20T03:22:20;43.72;;;19.65;;
38240;SDS011;24037;49.536;8.500;2022-11-20T03:24:47;54.72;;;19.33;;
38240;SDS011;24037;49.536;8.500;2022-11-20T03:27:13;49.08;;;20.75;;
38240;SDS011;24037;49.536;8.500;2022-11-20T03:29:39;54.75;;;21.95;;
38240;SDS011;24037;49.536;8.500;2022-11-20T03:32:05;51.10;;;19.52;;
38240;SDS011;24037;49.536;8.500;2022-11-20T03:34:31;54.65;;;20.27;;
38240;SDS011;24037;49.536;8.500;2022-11-20T03:36:57;49.95;;;20.73;;
38240;SDS011;24037;49.536;8.500;2022-11-20T03:39:24;57.47;;;22.15;;
38240;SDS011;24037;49.536;8.500;2022-11-20T03:41:50;65.07;;;22.20;;
38240;SDS011;24037;49.536;8.500;2022-11-20T03:44:16;57.88;;;24.45;;
38240;SDS011;24037;49.536;8.500;2022-11-20T03:46:42;56.67;;;20.55;;
38240;SDS011;24037;49.536;8.500;2022-11-20T03:49:08;51.80;;;23.02;;
38240;SDS011;24037;49.536;8.500;2022-11-20T03:51:35;50.15;;;21.30;;
38240;SDS011;24037;49.536;8.500;2022-11-20T03:54:06;53.58;;;21.83;;
38240;SDS011;24037;49.536;8.500;2022-11-20T03:56:34;49.42;;;19.92;;
38240;SDS011;24037;49.536;8.500;2022-11-20T03:59:02;57.53;;;22.15;;
38240;SDS011;24037;49.536;8.500;2022-11-20T04:01:30;55.47;;;21.25;;
38240;SDS011;24037;49.536;8.500;2022-11-20T04:03:57;53.67;;;20.83;;
38240;SDS011;24037;49.536;8.500;2022-11-20T04:06:25;49.63;;;20.08;;
38240;SDS011;24037;49.536;8.500;2022-11-20T04:08:56;54.58;;;21.25;;
38240;SDS011;24037;49.536;8.500;2022-11-20T04:11:25;51.08;;;21.88;;
38240;SDS011;24037;49.536;8.500;2022-11-20T04:13:57;50.58;;;19.58;;
38240;SDS011;24037;49.536;8.500;2022-11-20T04:16:26;56.85;;;20.48;;
38240;SDS011;24037;49.536;8.500;2022-11-20T04:18:56;51.55;;;19.23;;
38240;SDS011;24037;49.536;8.500;2022-11-20T04:21:24;53.38;;;19.63;;
38240;SDS011;24037;49.536;8.500;2022-11-20T04:23:51;57.65;;;20.40;;
38240;SDS011;24037;49.536;8.500;2022-11-20T04:26:21;55.67;;;19.60;;
38240;SDS011;24037;49.536;8.500;2022-11-20T04:28:49;47.47;;;19.38;;
38240;SDS011;24037;49.536;8.500;2022-11-20T04:31:19;46.60;;;19.58;;
38240;SDS011;24037;49.536;8.500;2022-11-20T04:33:47;51.40;;;20.17;;
38240;SDS011;24037;49.536;8.500;2022-11-20T04:36:21;56.28;;;20.42;;
38240;SDS011;24037;49.536;8.500;2022-11-20T04:38:53;47.08;;;20.60;;
38240;SDS011;24037;49.536;8.500;2022-11-20T04:41:25;55.75;;;20.27;;
38240;SDS011;24037;49.536;8.500;2022-11-20T04:43:54;45.95;;;18.15;;
38240;SDS011;24037;49.536;8.500;2022-11-20T04:46:25;51.55;;;18.35;;
38240;SDS011;24037;49.536;8.500;2022-11-20T04:48:52;43.53;;;19.80;;
38240;SDS011;24037;49.536;8.500;2022-11-20T04:51:18;47.83;;;19.17;;
38240;SDS011;24037;49.536;8.500;2022-11-20T04:53:45;45.40;;;19.10;;
38240;SDS011;24037;49.536;8.500;2022-11-20T04:56:11;47.13;;;18.30;;
38240;SDS011;24037;49.536;8.500;2022-11-20T04:58:38;51.45;;;21.08;;
38240;SDS011;24037;49.536;8.500;2022-11-20T05:01:06;48.15;;;18.23;;
38240;SDS011;24037;49.536;8.500;2022-11-20T05:03:40;44.40;;;20.00;;
38240;SDS011;24037;49.536;8.500;2022-11-20T05:06:07;52.65;;;21.10;;
38240;SDS011;24037;49.536;8.500;2022-11-20T05:08:35;46.33;;;17.83;;
38240;SDS011;24037;49.536;8.500;2022-11-20T05:11:02;49.13;;;19.15;;
38240;SDS011;24037;49.536;8.500;2022-11-20T05:13:30;53.30;;;21.73;;
38240;SDS011;24037;49.536;8.500;2022-11-20T05:16:00;53.67;;;20.95;;
38240;SDS011;24037;49.536;8.500;2022-11-20T05:18:30;49.63;;;21.27;;
38240;SDS011;24037;49.536;8.500;2022-11-20T05:20:57;52.60;;;20.73;;
38240;SDS011;24037;49.536;8.500;2022-11-20T05:23:24;49.95;;;18.13;;
38240;SDS011;24037;49.536;8.500;2022-11-20T05:25:54;48.42;;;17.92;;
38240;SDS011;24037;49.536;8.500;2022-11-20T05:28:21;53.35;;;19.27;;
38240;SDS011;24037;49.536;8.500;2022-11-20T05:30:48;52.15;;;20.45;;
38240;SDS011;24037;49.536;8.500;2022-11-20T05:33:16;52.03;;;21.10;;
38240;SDS011;24037;49.536;8.500;2022-11-20T05:35:43;54.92;;;19.30;;
38240;SDS011;24037;49.536;8.500;2022-11-20T05:38:09;59.33;;;21.52;;
38240;SDS011;24037;49.536;8.500;2022-11-20T05:40:35;51.35;;;21.25;;
38240;SDS011;24037;49.536;8.500;2022-11-20T05:43:01;64.80;;;24.08;;
38240;SDS011;24037;49.536;8.500;2022-11-20T05:45:28;65.15;;;26.25;;
38240;SDS011;24037;49.536;8.500;2022-11-20T05:47:57;70.68;;;27.33;;
38240;SDS011;24037;49.536;8.500;2022-11-20T05:50:26;53.83;;;22.02;;
38240;SDS011;24037;49.536;8.500;2022-11-20T05:52:53;52.95;;;18.25;;
38240;SDS011;24037;49.536;8.500;2022-11-20T05:55:19;52.67;;;18.48;;
38240;SDS011;24037;49.536;8.500;2022-11-20T05:57:45;50.03;;;20.25;;
38240;SDS011;24037;49.536;8.500;2022-11-20T06:00:12;63.70;;;19.35;;
38240;SDS011;24037;49.536;8.500;2022-11-20T06:02:38;58.92;;;22.63;;
38240;SDS011;24037;49.536;8.500;2022-11-20T06:05:05;56.15;;;21.13;;
38240;SDS011;24037;49.536;8.500;2022-11-20T06:07:31;57.80;;;20.77;;
38240;SDS011;24037;49.536;8.500;2022-11-20T06:09:57;59.35;;;19.75;;
38240;SDS011;24037;49.536;8.500;2022-11-20T06:12:23;60.40;;;19.90;;
38240;SDS011;24037;49.536;8.500;2022-11-20T06:14:49;57.63;;;23.73;;
38240;SDS011;24037;49.536;8.500;2022-11-20T06:17:15;60.75;;;22.20;;
38240;SDS011;24037;49.536;8.500;2022-11-20T06:19:42;53.13;;;18.98;;
38240;SDS011;24037;49.536;8.500;2022-11-20T06:22:08;53.58;;;20.10;;
38240;SDS011;24037;49.536;8.500;2022-11-20T06:24:34;59.10;;;20.17;;
38240;SDS011;24037;49.536;8.500;2022-11-20T06:27:00;51.45;;;22.00;;
38240;SDS011;24037;49.536;8.500;2022-11-20T06:29:26;60.90;;;22.27;;
38240;SDS011;24037;49.536;8.500;2022-11-20T06:31:52;62.28;;;22.20;;
38240;SDS011;24037;49.536;8.500;2022-11-20T06:34:18;52.08;;;23.20;;
38240;SDS011;24037;49.536;8.500;2022-11-20T06:36:45;55.47;;;21.88;;
38240;SDS011;24037;49.536;8.500;2022-11-20T06:39:11;52.28;;;20.40;;
38240;SDS011;24037;49.536;8.500;2022-11-20T06:41:37;44.30;;;19.58;;
38240;SDS011;24037;49.536;8.500;2022-11-20T06:44:04;58.85;;;21.45;;
38240;SDS011;24037;49.536;8.500;2022-11-20T06:46:31;63.63;;;21.38;;
38240;SDS011;24037;49.536;8.500;2022-11-20T06:48:57;58.05;;;20.73;;
38240;SDS011;24037;49.536;8.500;2022-11-20T06:51:24;62.75;;;20.50;;
38240;SDS011;24037;49.536;8.500;2022-11-20T06:53:50;55.22;;;20.83;;
38240;SDS011;24037;49.536;8.500;2022-11-20T06:56:17;58.38;;;21.00;;
38240;SDS011;24037;49.536;8.500;2022-11-20T06:58:43;60.67;;;20.65;;
38240;SDS011;24037;49.536;8.500;2022-11-20T07:01:10;61.15;;;22.30;;
38240;SDS011;24037;49.536;8.500;2022-11-20T07:03:38;57.03;;;21.63;;
38240;SDS011;24037;49.536;8.500;2022-11-20T07:06:05;59.67;;;21.85;;
38240;SDS011;24037;49.536;8.500;2022-11-20T07:08:31;52.45;;;22.52;;
38240;SDS011;24037;49.536;8.500;2022-11-20T07:11:02;61.13;;;21.23;;
38240;SDS011;24037;49.536;8.500;2022-11-20T07:13:31;58.65;;;21.25;;
38240;SDS011;24037;49.536;8.500;2022-11-20T07:16:04;66.45;;;24.25;;
38240;SDS011;24037;49.536;8.500;2022-11-20T07:18:32;60.70;;;20.67;;
38240;SDS011;24037;49.536;8.500;2022-11-20T07:21:02;54.97;;;21.27;;
38240;SDS011;24037;49.536;8.500;2022-11-20T07:23:30;65.85;;;23.48;;
38240;SDS011;24037;49.536;8.500;2022-11-20T07:25:56;66.88;;;22.10;;
38240;SDS011;24037;49.536;8.500;2022-11-20T07:28:23;71.55;;;23.13;;
38240;SDS011;24037;49.536;8.500;2022-11-20T07:30:50;58.92;;;23.92;;
38240;SDS011;24037;49.536;8.500;2022-11-20T07:33:17;56.70;;;22.77;;
38240;SDS011;24037;49.536;8.500;2022-11-20T07:35:43;64.40;;;22.90;;
38240;SDS011;24037;49.536;8.500;2022-11-20T07:38:09;74.55;;;25.00;;
38240;SDS011;24037;49.536;8.500;2022-11-20T07:40:35;66.07;;;24.27;;
38240;SDS011;24037;49.536;8.500;2022-11-20T07:43:01;63.60;;;24.00;;
38240;SDS011;24037;49.536;8.500;2022-11-20T07:45:28;56.65;;;22.58;;
38240;SDS011;24037;49.536;8.500;2022-11-20T07:47:54;74.63;;;26.63;;
38240;SDS011;24037;49.536;8.500;2022-11-20T07:50:20;73.88;;;25.92;;
38240;SDS011;24037;49.536;8.500;2022-11-20T07:52:46;66.82;;;25.13;;
38240;SDS011;24037;49.536;8.500;2022-11-20T07:55:13;66.65;;;26.48;;
38240;SDS011;24037;49.536;8.500;2022-11-20T07:57:39;63.30;;;27.30;;
38240;SDS011;24037;49.536;8.500;2022-11-20T08:00:07;73.85;;;27.27;;
38240;SDS011;24037;49.536;8.500;2022-11-20T08:02:40;68.82;;;26.25;;
38240;SDS011;24037;49.536;8.500;2022-11-20T08:05:07;57.70;;;24.75;;
38240;SDS011;24037;49.536;8.500;2022-11-20T08:07:37;74.93;;;28.85;;
38240;SDS011;24037;49.536;8.500;2022-11-20T08:10:05;72.88;;;28.17;;
38240;SDS011;24037;49.536;8.500;2022-11-20T08:12:32;71.75;;;23.00;;
38240;SDS011;24037;49.536;8.500;2022-11-20T08:15:16;65.07;;;25.75;;
38240;SDS011;24037;49.536;8.500;2022-11-20T08:17:43;68.63;;;24.75;;
38240;SDS011;24037;49.536;8.500;2022-11-20T08:20:09;67.43;;;25.33;;
38240;SDS011;24037;49.536;8.500;2022-11-20T08:22:35;72.43;;;26.60;;
38240;SDS011;24037;49.536;8.500;2022-11-20T08:25:02;72.75;;;27.88;;
38240;SDS011;24037;49.536;8.500;2022-11-20T08:27:28;86.53;;;29.33;;
38240;SDS011;24037;49.536;8.500;2022-11-20T08:29:54;79.53;;;29.25;;
38240;SDS011;24037;49.536;8.500;2022-11-20T08:32:20;77.35;;;27.77;;
38240;SDS011;24037;49.536;8.500;2022-11-20T08:34:46;88.95;;;30.05;;
38240;SDS011;24037;49.536;8.500;2022-11-20T08:37:13;80.10;;;28.65;;
38240;SDS011;24037;49.536;8.500;2022-11-20T08:39:39;83.13;;;28.75;;
38240;SDS011;24037;49.536;8.500;2022-11-20T08:42:08;84.88;;;28.48;;
38240;SDS011;24037;49.536;8.500;2022-11-20T08:44:34;84.20;;;31.65;;
38240;SDS011;24037;49.536;8.500;2022-11-20T08:47:00;93.53;;;32.85;;
38240;SDS011;24037;49.536;8.500;2022-11-20T08:49:26;78.28;;;29.60;;
38240;SDS011;24037;49.536;8.500;2022-11-20T08:51:53;86.68;;;31.08;;
38240;SDS011;24037;49.536;8.500;2022-11-20T08:54:20;82.97;;;31.10;;
38240;SDS011;24037;49.536;8.500;2022-11-20T08:56:48;98.05;;;35.28;;
38240;SDS011;24037;49.536;8.500;2022-11-20T08:59:14;101.20;;;34.67;;
38240;SDS011;24037;49.536;8.500;2022-11-20T09:01:40;102.07;;;33.67;;
38240;SDS011;24037;49.536;8.500;2022-11-20T09:04:06;100.43;;;34.13;;
38240;SDS011;24037;49.536;8.500;2022-11-20T09:06:33;95.43;;;34.00;;
38240;SDS011;24037;49.536;8.500;2022-11-20T09:08:59;102.35;;;36.33;;
38240;SDS011;24037;49.536;8.500;2022-11-20T09:11:25;95.43;;;34.03;;
38240;SDS011;24037;49.536;8.500;2022-11-20T09:13:51;97.32;;;34.45;;
38240;SDS011;24037;49.536;8.500;2022-11-20T09:16:17;102.05;;;35.35;;
38240;SDS011;24037;49.536;8.500;2022-11-20T09:18:43;105.38;;;37.45;;
38240;SDS011;24037;49.536;8.500;2022-11-20T09:21:10;93.00;;;34.92;;
38240;SDS011;24037;49.536;8.500;2022-11-20T09:23:38;111.00;;;36.13;;
38240;SDS011;24037;49.536;8.500;2022-11-20T09:26:06;117.35;;;36.75;;
38240;SDS011;24037;49.536;8.500;2022-11-20T09:28:34;106.32;;;38.03;;
38240;SDS011;24037;49.536;8.500;2022-11-20T09:31:00;106.85;;;35.10;;
38240;SDS011;24037;49.536;8.500;2022-11-20T09:33:30;92.03;;;33.58;;
38240;SDS011;24037;49.536;8.500;2022-11-20T09:35:56;101.15;;;36.33;;
38240;SDS011;24037;49.536;8.500;2022-11-20T09:38:22;98.20;;;33.22;;
38240;SDS011;24037;49.536;8.500;2022-11-20T09:41:06;100.10;;;32.83;;
38240;SDS011;24037;49.536;8.500;2022-11-20T09:44:11;96.90;;;30.83;;
38240;SDS011;24037;49.536;8.500;2022-11-20T09:46:53;91.68;;;30.15;;
38240;SDS011;24037;49.536;8.500;2022-11-20T09:55:10;101.15;;;32.85;;
38240;SDS011;24037;49.536;8.500;2022-11-20T09:57:40;90.03;;;32.10;;
38240;SDS011;24037;49.536;8.500;2022-11-20T10:00:10;87.32;;;31.33;;
38240;SDS011;24037;49.536;8.500;2022-11-20T10:02:44;84.45;;;31.17;;
38240;SDS011;24037;49.536;8.500;2022-11-20T10:10:50;93.15;;;33.70;;
38240;SDS011;24037;49.536;8.500;2022-11-20T10:19:31;78.50;;;31.73;;
38240;SDS011;24037;49.536;8.500;2022-11-20T10:25:01;98.13;;;32.85;;
38240;SDS011;24037;49.536;8.500;2022-11-20T10:30:28;84.20;;;30.25;;
38240;SDS011;24037;49.536;8.500;2022-11-20T10:33:39;89.07;;;29.85;;
38240;SDS011;24037;49.536;8.500;2022-11-20T10:41:03;88.03;;;31.05;;
38240;SDS011;24037;49.536;8.500;2022-11-20T10:43:50;81.22;;;30.02;;
38240;SDS011;24037;49.536;8.500;2022-11-20T10:46:21;91.15;;;31.77;;
38240;SDS011;24037;49.536;8.500;2022-11-20T10:48:48;86.22;;;31.08;;
38240;SDS011;24037;49.536;8.500;2022-11-20T10:54:12;81.53;;;32.00;;
38240;SDS011;24037;49.536;8.500;2022-11-20T10:57:29;71.82;;;27.20;;
38240;SDS011;24037;49.536;8.500;2022-11-20T11:00:19;80.05;;;28.55;;
38240;SDS011;24037;49.536;8.500;2022-11-20T11:02:54;65.63;;;28.33;;
38240;SDS011;24037;49.536;8.500;2022-11-20T11:13:24;73.30;;;27.27;;
38240;SDS011;24037;49.536;8.500;2022-11-20T11:15:52;78.95;;;30.80;;
38240;SDS011;24037;49.536;8.500;2022-11-20T11:18:29;73.55;;;30.52;;
38240;SDS011;24037;49.536;8.500;2022-11-20T11:20:57;77.95;;;28.15;;
38240;SDS011;24037;49.536;8.500;2022-11-20T11:26:00;73.82;;;29.40;;
38240;SDS011;24037;49.536;8.500;2022-11-20T11:28:29;68.35;;;30.70;;
38240;SDS011;24037;49.536;8.500;2022-11-20T11:30:55;69.20;;;28.20;;
38240;SDS011;24037;49.536;8.500;2022-11-20T11:33:23;72.45;;;28.55;;
38240;SDS011;24037;49.536;8.500;2022-11-20T11:35:51;76.45;;;30.45;;
38240;SDS011;24037;49.536;8.500;2022-11-20T11:38:27;75.47;;;29.95;;
38240;SDS011;24037;49.536;8.500;2022-11-20T11:41:02;78.18;;;30.35;;
38240;SDS011;24037;49.536;8.500;2022-11-20T11:43:32;71.43;;;29.98;;
38240;SDS011;24037;49.536;8.500;2022-11-20T11:56:59;75.93;;;30.38;;
38240;SDS011;24037;49.536;8.500;2022-11-20T12:00:14;77.20;;;30.95;;
38240;SDS011;24037;49.536;8.500;2022-11-20T12:05:22;76.68;;;33.72;;
38240;SDS011;24037;49.536;8.500;2022-11-20T12:16:21;89.25;;;34.78;;
38240;SDS011;24037;49.536;8.500;2022-11-20T12:18:51;74.75;;;31.88;;
38240;SDS011;24037;49.536;8.500;2022-11-20T12:21:19;80.33;;;38.00;;
38240;SDS011;24037;49.536;8.500;2022-11-20T12:30:00;77.05;;;30.50;;
38240;SDS011;24037;49.536;8.500;2022-11-20T12:41:10;70.63;;;30.02;;
38240;SDS011;24037;49.536;8.500;2022-11-20T12:56:17;74.50;;;27.98;;
38240;SDS011;24037;49.536;8.500;2022-11-20T12:59:33;74.38;;;31.02;;
38240;SDS011;24037;49.536;8.500;2022-11-20T13:04:52;73.55;;;30.00;;
38240;SDS011;24037;49.536;8.500;2022-11-20T13:07:44;74.50;;;29.67;;
38240;SDS011;24037;49.536;8.500;2022-11-20T13:10:13;79.18;;;28.88;;
38240;SDS011;24037;49.536;8.500;2022-11-20T13:15:47;65.47;;;24.65;;
38240;SDS011;24037;49.536;8.500;2022-11-20T13:18:39;69.88;;;30.02;;
38240;SDS011;24037;49.536;8.500;2022-11-20T13:23:44;86.57;;;35.72;;
38240;SDS011;24037;49.536;8.500;2022-11-20T13:26:20;83.03;;;38.65;;
38240;SDS011;24037;49.536;8.500;2022-11-20T13:28:58;84.13;;;34.47;;
38240;SDS011;24037;49.536;8.500;2022-11-20T13:31:35;68.55;;;28.65;;
38240;SDS011;24037;49.536;8.500;2022-11-20T13:34:05;62.58;;;30.90;;
38240;SDS011;24037;49.536;8.500;2022-11-20T13:36:32;68.90;;;29.73;;
38240;SDS011;24037;49.536;8.500;2022-11-20T13:39:00;62.25;;;29.65;;
38240;SDS011;24037;49.536;8.500;2022-11-20T13:41:28;69.45;;;28.13;;
38240;SDS011;24037;49.536;8.500;2022-11-20T13:44:04;65.68;;;28.98;;
38240;SDS011;24037;49.536;8.500;2022-11-20T13:46:49;72.55;;;30.70;;
38240;SDS011;24037;49.536;8.500;2022-11-20T13:55:02;50.72;;;24.05;;
38240;SDS011;24037;49.536;8.500;2022-11-20T13:57:37;51.25;;;22.15;;
38240;SDS011;24037;49.536;8.500;2022-11-20T14:00:26;55.03;;;25.23;;
38240;SDS011;24037;49.536;8.500;2022-11-20T14:05:32;41.95;;;22.95;;
38240;SDS011;24037;49.536;8.500;2022-11-20T14:08:02;27.45;;;13.48;;
38240;SDS011;24037;49.536;8.500;2022-11-20T14:10:31;23.67;;;12.27;;
38240;SDS011;24037;49.536;8.500;2022-11-20T14:12:57;15.93;;;8.13;;
38240;SDS011;24037;49.536;8.500;2022-11-20T14:15:35;15.90;;;5.80;;
38240;SDS011;24037;49.536;8.500;2022-11-20T14:18:11;7.70;;;3.75;;
38240;SDS011;24037;49.536;8.500;2022-11-20T14:20:44;10.40;;;3.20;;
38240;SDS011;24037;49.536;8.500;2022-11-20T14:23:11;5.35;;;2.78;;
38240;SDS011;24037;49.536;8.500;2022-11-20T14:25:41;7.35;;;2.65;;
38240;SDS011;24037;49.536;8.500;2022-11-20T14:30:46;4.95;;;2.05;;
38240;SDS011;24037;49.536;8.500;2022-11-20T14:33:14;5.82;;;2.00;;
38240;SDS011;24037;49.536;8.500;2022-11-20T14:35:44;6.68;;;2.00;;
38240;SDS011;24037;49.536;8.500;2022-11-20T14:38:13;3.70;;;1.75;;
38240;SDS011;24037;49.536;8.500;2022-11-20T14:40:42;3.35;;;1.50;;
38240;SDS011;24037;49.536;8.500;2022-11-20T14:43:16;12.75;;;4.35;;
38240;SDS011;24037;49.536;8.500;2022-11-20T14:45:46;4.95;;;2.58;;
38240;SDS011;24037;49.536;8.500;2022-11-20T14:48:22;4.55;;;2.17;;
38240;SDS011;24037;49.536;8.500;2022-11-20T14:50:54;7.32;;;2.78;;
38240;SDS011;24037;49.536;8.500;2022-11-20T14:53:24;8.88;;;4.15;;
38240;SDS011;24037;49.536;8.500;2022-11-20T14:55:58;5.93;;;4.15;;
38240;SDS011;24037;49.536;8.500;2022-11-20T14:58:27;8.88;;;4.50;;
38240;SDS011;24037;49.536;8.500;2022-11-20T15:01:04;15.93;;;10.07;;
38240;SDS011;24037;49.536;8.500;2022-11-20T15:03:39;10.13;;;5.30;;
38240;SDS011;24037;49.536;8.500;2022-11-20T15:06:07;7.78;;;3.50;;
38240;SDS011;24037;49.536;8.500;2022-11-20T15:08:36;7.82;;;2.38;;
38240;SDS011;24037;49.536;8.500;2022-11-20T15:11:03;6.93;;;3.05;;
38240;SDS011;24037;49.536;8.500;2022-11-20T15:13:41;9.05;;;2.45;;
38240;SDS011;24037;49.536;8.500;2022-11-20T15:16:10;5.05;;;2.47;;
38240;SDS011;24037;49.536;8.500;2022-11-20T15:18:46;5.93;;;2.75;;
38240;SDS011;24037;49.536;8.500;2022-11-20T15:21:14;7.43;;;3.50;;
38240;SDS011;24037;49.536;8.500;2022-11-20T15:23:41;7.30;;;3.92;;
38240;SDS011;24037;49.536;8.500;2022-11-20T15:26:08;6.57;;;3.38;;
38240;SDS011;24037;49.536;8.500;2022-11-20T15:28:37;4.20;;;1.73;;
38240;SDS011;24037;49.536;8.500;2022-11-20T15:31:06;11.70;;;6.05;;
38240;SDS011;24037;49.536;8.500;2022-11-20T15:33:36;32.13;;;17.70;;
38240;SDS011;24037;49.536;8.500;2022-11-20T15:36:03;15.23;;;9.52;;
38240;SDS011;24037;49.536;8.500;2022-11-20T15:38:29;7.93;;;4.93;;
38240;SDS011;24037;49.536;8.500;2022-11-20T15:40:55;8.75;;;5.30;;
38240;SDS011;24037;49.536;8.500;2022-11-20T15:43:22;9.48;;;5.35;;
38240;SDS011;24037;49.536;8.500;2022-11-20T15:45:49;7.30;;;5.10;;
38240;SDS011;24037;49.536;8.500;2022-11-20T15:48:28;9.57;;;3.17;;
38240;SDS011;24037;49.536;8.500;2022-11-20T15:53:29;5.20;;;2.90;;
38240;SDS011;24037;49.536;8.500;2022-11-20T15:55:55;6.57;;;2.53;;
38240;SDS011;24037;49.536;8.500;2022-11-20T15:58:21;5.05;;;2.40;;
38240;SDS011;24037;49.536;8.500;2022-11-20T16:00:49;4.63;;;3.03;;
38240;SDS011;24037;49.536;8.500;2022-11-20T16:03:16;6.05;;;3.10;;
38240;SDS011;24037;49.536;8.500;2022-11-20T16:05:43;9.15;;;3.80;;
38240;SDS011;24037;49.536;8.500;2022-11-20T16:08:10;6.13;;;4.15;;
38240;SDS011;24037;49.536;8.500;2022-11-20T16:10:36;10.90;;;6.85;;
38240;SDS011;24037;49.536;8.500;2022-11-20T16:13:03;23.05;;;14.52;;
38240;SDS011;24037;49.536;8.500;2022-11-20T16:15:52;25.48;;;14.40;;
38240;SDS011;24037;49.536;8.500;2022-11-20T16:18:22;12.63;;;8.20;;
38240;SDS011;24037;49.536;8.500;2022-11-20T16:20:50;9.90;;;6.05;;
38240;SDS011;24037;49.536;8.500;2022-11-20T16:23:18;7.55;;;5.10;;
38240;SDS011;24037;49.536;8.500;2022-11-20T16:25:46;8.20;;;4.88;;
38240;SDS011;24037;49.536;8.500;2022-11-20T16:28:12;9.60;;;6.60;;
38240;SDS011;24037;49.536;8.500;2022-11-20T16:30:39;9.80;;;6.07;;
38240;SDS011;24037;49.536;8.500;2022-11-20T16:33:09;9.35;;;5.68;;
38240;SDS011;24037;49.536;8.500;2022-11-20T16:35:42;7.70;;;5.28;;